createdAt,value
2023-02-03T00:00:28.139Z,87.59
2023-02-03T00:01:27.979Z,87.59
2023-02-03T00:02:27.961Z,88.00
2023-02-03T00:03:27.948Z,87.84
2023-02-03T00:04:27.951Z,87.59
2023-02-03T00:05:27.914Z,87.70
2023-02-03T00:06:28.213Z,87.79
2023-02-03T00:07:27.905Z,88.10
2023-02-03T00:08:27.885Z,87.70
2023-02-03T00:09:27.900Z,87.59
2023-02-03T00:10:28.204Z,87.59
2023-02-03T00:11:27.856Z,87.18
2023-02-03T00:12:27.848Z,87.28
2023-02-03T00:13:27.826Z,87.28
2023-02-03T00:14:27.838Z,87.49
2023-02-03T00:15:27.806Z,87.70
2023-02-03T00:16:27.814Z,87.49
2023-02-03T00:17:27.778Z,87.90
2023-02-03T00:18:27.778Z,88.10
2023-02-03T00:19:27.802Z,87.38
2023-02-03T00:20:28.028Z,87.59
2023-02-03T00:21:27.740Z,87.59
2023-02-03T00:22:27.737Z,87.59
2023-02-03T00:23:27.727Z,87.70
2023-02-03T00:24:27.763Z,87.90
2023-02-03T00:25:27.709Z,87.59
2023-02-03T00:26:27.679Z,87.79
2023-02-03T00:27:27.669Z,87.38
2023-02-03T00:28:27.671Z,86.87
2023-02-03T00:29:27.660Z,86.98
2023-02-03T00:30:27.999Z,87.38
2023-02-03T00:31:27.775Z,87.08
2023-02-03T00:32:27.906Z,87.28
2023-02-03T00:33:27.609Z,87.28
2023-02-03T00:34:27.619Z,86.77
2023-02-03T00:35:27.603Z,86.77
2023-02-03T00:36:27.571Z,86.66
2023-02-03T00:37:27.562Z,86.66
2023-02-03T00:38:27.559Z,86.98
2023-02-03T00:39:27.542Z,86.77
2023-02-03T00:40:27.917Z,86.57
2023-02-03T00:41:27.507Z,86.66
2023-02-03T00:42:27.521Z,86.25
2023-02-03T00:43:27.492Z,86.15
2023-02-03T00:44:27.489Z,86.46
2023-02-03T00:45:27.503Z,86.66
2023-02-03T00:46:27.477Z,86.25
2023-02-03T00:47:27.451Z,86.25
2023-02-03T00:48:27.482Z,86.25
2023-02-03T00:49:27.435Z,86.15
2023-02-03T00:50:27.780Z,86.25
2023-02-03T00:51:27.434Z,86.46
2023-02-03T00:52:27.400Z,86.57
2023-02-03T00:53:27.391Z,86.66
2023-02-03T00:54:27.373Z,86.66
2023-02-03T00:55:27.388Z,86.77
2023-02-03T00:56:27.354Z,86.77
2023-02-03T00:57:27.340Z,86.87
2023-02-03T00:58:27.369Z,86.66
2023-02-03T00:59:27.328Z,86.57
2023-02-03T01:00:27.696Z,86.77
2023-02-03T01:01:27.378Z,86.98
2023-02-03T01:02:27.365Z,86.98
2023-02-03T01:03:27.274Z,87.28
2023-02-03T01:04:27.265Z,86.98
2023-02-03T01:05:27.282Z,86.36
2023-02-03T01:06:27.237Z,86.36
2023-02-03T01:07:27.241Z,86.66
2023-02-03T01:08:27.212Z,86.46
2023-02-03T01:09:27.235Z,86.66
2023-02-03T01:10:27.521Z,86.36
2023-02-03T01:11:27.214Z,86.46
2023-02-03T01:12:27.179Z,86.66
2023-02-03T01:13:27.164Z,86.77
2023-02-03T01:14:27.147Z,86.98
2023-02-03T01:15:27.158Z,86.15
2023-02-03T01:16:34.208Z,86.05
2023-02-03T01:17:34.131Z,86.05
2023-02-03T01:18:34.108Z,85.85
2023-02-03T01:19:34.142Z,85.54
2023-02-03T01:20:35.368Z,85.54
2023-02-03T01:21:34.098Z,85.85
2023-02-03T01:22:27.046Z,85.44
2023-02-03T01:23:27.052Z,85.13
2023-02-03T01:24:27.036Z,85.13
2023-02-03T01:25:27.044Z,85.44
2023-02-03T01:26:27.027Z,85.23
2023-02-03T01:27:27.021Z,84.88
2023-02-03T01:28:27.003Z,84.58
2023-02-03T01:29:29.816Z,84.58
2023-02-03T01:30:27.408Z,84.37
2023-02-03T01:31:27.067Z,84.17
2023-02-03T01:32:26.970Z,84.06
2023-02-03T01:33:26.946Z,84.37
2023-02-03T01:34:26.931Z,84.06
2023-02-03T01:35:26.935Z,84.17
2023-02-03T01:36:26.911Z,84.27
2023-02-03T01:37:26.898Z,84.06
2023-02-03T01:38:26.894Z,84.17
2023-02-03T01:39:26.907Z,84.27
2023-02-03T01:40:27.280Z,84.58
2023-02-03T01:41:26.856Z,84.37
2023-02-03T01:42:26.856Z,83.96
2023-02-03T01:43:27.119Z,84.17
2023-02-03T01:44:26.809Z,83.96
2023-02-03T01:45:26.812Z,83.96
2023-02-03T01:46:26.835Z,84.47
2023-02-03T01:47:26.790Z,84.06
2023-02-03T01:48:26.810Z,84.17
2023-02-03T01:49:26.788Z,84.06
2023-02-03T01:50:27.042Z,84.17
2023-02-03T01:51:26.741Z,84.17
2023-02-03T01:52:26.741Z,84.27
2023-02-03T01:53:26.710Z,83.86
2023-02-03T01:54:26.716Z,83.86
2023-02-03T01:55:26.710Z,84.06
2023-02-03T01:56:26.681Z,84.06
2023-02-03T01:57:26.671Z,84.17
2023-02-03T01:58:26.665Z,84.58
2023-02-03T01:59:29.423Z,84.06
2023-02-03T02:00:27.062Z,83.86
2023-02-03T02:01:26.674Z,83.76
2023-02-03T02:02:26.675Z,83.86
2023-02-03T02:03:26.599Z,83.55
2023-02-03T02:04:26.587Z,83.55
2023-02-03T02:05:26.594Z,83.55
2023-02-03T02:06:26.610Z,83.55
2023-02-03T02:07:26.563Z,83.76
2023-02-03T02:08:26.544Z,83.76
2023-02-03T02:09:26.539Z,83.86
2023-02-03T02:10:26.857Z,83.86
2023-02-03T02:11:26.513Z,83.76
2023-02-03T02:12:26.498Z,83.76
2023-02-03T02:13:26.496Z,83.96
2023-02-03T02:14:26.471Z,84.27
2023-02-03T02:15:26.474Z,83.96
2023-02-03T02:16:26.452Z,83.86
2023-02-03T02:17:26.452Z,83.86
2023-02-03T02:18:26.457Z,84.47
2023-02-03T02:19:26.424Z,83.96
2023-02-03T02:20:26.732Z,83.65
2023-02-03T02:21:26.389Z,83.86
2023-02-03T02:22:26.390Z,84.27
2023-02-03T02:23:26.375Z,84.37
2023-02-03T02:24:26.364Z,83.86
2023-02-03T02:25:26.365Z,84.06
2023-02-03T02:26:26.339Z,83.96
2023-02-03T02:27:26.324Z,83.86
2023-02-03T02:28:27.063Z,83.86
2023-02-03T02:29:26.423Z,83.86
2023-02-03T02:30:26.667Z,84.06
2023-02-03T02:31:26.413Z,84.27
2023-02-03T02:32:26.266Z,84.17
2023-02-03T02:33:26.254Z,84.27
2023-02-03T02:34:26.243Z,83.96
2023-02-03T02:35:26.246Z,83.86
2023-02-03T02:36:26.226Z,84.06
2023-02-03T02:37:26.212Z,84.37
2023-02-03T02:38:26.204Z,84.06
2023-02-03T02:39:26.227Z,83.76
2023-02-03T02:40:26.605Z,83.76
2023-02-03T02:41:26.175Z,83.86
2023-02-03T02:42:26.155Z,83.86
2023-02-03T02:43:26.150Z,83.96
2023-02-03T02:44:26.136Z,83.86
2023-02-03T02:45:26.142Z,83.86
2023-02-03T02:46:26.155Z,83.86
2023-02-03T02:47:26.097Z,83.76
2023-02-03T02:48:33.116Z,83.86
2023-02-03T02:49:33.081Z,83.65
2023-02-03T02:50:26.339Z,83.55
2023-02-03T02:51:34.321Z,83.45
2023-02-03T02:52:26.041Z,83.25
2023-02-03T02:53:26.026Z,83.14
2023-02-03T02:54:26.029Z,83.04
2023-02-03T02:55:25.999Z,83.14
2023-02-03T02:56:26.009Z,83.04
2023-02-03T02:57:25.988Z,83.04
2023-02-03T02:58:25.984Z,83.25
2023-02-03T02:59:25.950Z,83.34
2023-02-03T03:00:26.342Z,83.34
2023-02-03T03:01:25.962Z,82.42
2023-02-03T03:02:25.921Z,82.22
2023-02-03T03:03:25.924Z,82.01
2023-02-03T03:04:25.963Z,82.22
2023-02-03T03:05:25.891Z,82.22
2023-02-03T03:06:25.898Z,81.91
2023-02-03T03:07:26.138Z,81.60
2023-02-03T03:08:25.859Z,81.29
2023-02-03T03:09:25.855Z,81.29
2023-02-03T03:10:26.009Z,80.99
2023-02-03T03:11:25.844Z,80.78
2023-02-03T03:12:25.811Z,80.78
2023-02-03T03:13:25.798Z,81.09
2023-02-03T03:14:25.792Z,80.78
2023-02-03T03:15:25.797Z,81.40
2023-02-03T03:16:25.831Z,81.20
2023-02-03T03:17:25.760Z,80.78
2023-02-03T03:18:25.751Z,80.13
2023-02-03T03:19:25.731Z,80.33
2023-02-03T03:20:26.090Z,80.54
2023-02-03T03:21:25.749Z,80.33
2023-02-03T03:22:25.710Z,80.13
2023-02-03T03:23:25.682Z,80.54
2023-02-03T03:24:25.685Z,80.44
2023-02-03T03:25:25.676Z,80.33
2023-02-03T03:26:25.659Z,80.54
2023-02-03T03:27:25.673Z,80.68
2023-02-03T03:28:25.634Z,80.74
2023-02-03T03:29:25.621Z,80.23
2023-02-03T03:30:25.941Z,80.44
2023-02-03T03:31:25.680Z,80.54
2023-02-03T03:32:25.613Z,80.64
2023-02-03T03:33:25.582Z,80.33
2023-02-03T03:34:25.570Z,80.44
2023-02-03T03:35:25.563Z,80.23
2023-02-03T03:36:25.552Z,79.93
2023-02-03T03:37:25.637Z,80.13
2023-02-03T03:38:25.516Z,80.33
2023-02-03T03:39:25.514Z,80.74
2023-02-03T03:40:25.821Z,80.85
2023-02-03T03:41:25.493Z,81.20
2023-02-03T03:42:25.496Z,80.99
2023-02-03T03:43:25.473Z,81.20
2023-02-03T03:44:25.446Z,81.20
2023-02-03T03:45:25.443Z,81.09
2023-02-03T03:46:25.475Z,80.88
2023-02-03T03:47:25.474Z,81.40
2023-02-03T03:48:25.406Z,81.29
2023-02-03T03:49:25.403Z,81.29
2023-02-03T03:50:25.738Z,81.29
2023-02-03T03:51:25.374Z,81.40
2023-02-03T03:52:25.622Z,81.50
2023-02-03T03:53:25.350Z,81.81
2023-02-03T03:54:25.342Z,81.50
2023-02-03T03:55:25.334Z,81.60
2023-02-03T03:56:25.336Z,81.71
2023-02-03T03:57:25.308Z,81.40
2023-02-03T03:58:25.296Z,81.50
2023-02-03T03:59:25.280Z,81.60
2023-02-03T04:00:25.729Z,81.60
2023-02-03T04:01:25.382Z,81.60
2023-02-03T04:02:25.299Z,81.71
2023-02-03T04:03:25.244Z,81.71
2023-02-03T04:04:25.237Z,81.60
2023-02-03T04:05:25.235Z,81.91
2023-02-03T04:06:25.202Z,82.12
2023-02-03T04:07:25.189Z,82.01
2023-02-03T04:08:25.180Z,82.32
2023-02-03T04:09:25.186Z,82.42
2023-02-03T04:10:25.424Z,82.53
2023-02-03T04:11:25.141Z,82.12
2023-02-03T04:12:25.159Z,82.12
2023-02-03T04:13:25.117Z,82.01
2023-02-03T04:14:25.110Z,82.01
2023-02-03T04:15:25.407Z,81.91
2023-02-03T04:16:25.143Z,82.12
2023-02-03T04:17:25.098Z,82.12
2023-02-03T04:18:32.103Z,82.01
2023-02-03T04:19:32.365Z,82.12
2023-02-03T04:20:32.058Z,82.12
2023-02-03T04:21:32.047Z,82.12
2023-02-03T04:22:25.047Z,82.12
2023-02-03T04:23:32.028Z,82.32
2023-02-03T04:24:24.994Z,82.32
2023-02-03T04:25:24.985Z,82.53
2023-02-03T04:26:24.976Z,82.32
2023-02-03T04:27:24.972Z,82.53
2023-02-03T04:28:24.957Z,82.53
2023-02-03T04:29:24.940Z,82.73
2023-02-03T04:30:24.986Z,82.73
2023-02-03T04:31:24.978Z,82.42
2023-02-03T04:32:24.928Z,82.22
2023-02-03T04:33:24.899Z,82.12
2023-02-03T04:34:24.884Z,82.22
2023-02-03T04:35:24.876Z,82.12
2023-02-03T04:36:24.858Z,82.22
2023-02-03T04:37:24.868Z,82.42
2023-02-03T04:38:24.842Z,82.12
2023-02-03T04:39:24.827Z,81.91
2023-02-03T04:40:25.082Z,81.91
2023-02-03T04:41:24.809Z,81.81
2023-02-03T04:42:24.796Z,81.91
2023-02-03T04:43:24.787Z,81.91
2023-02-03T04:44:24.788Z,81.81
2023-02-03T04:45:24.873Z,81.40
2023-02-03T04:46:24.750Z,81.50
2023-02-03T04:47:24.759Z,81.60
2023-02-03T04:48:24.719Z,80.99
2023-02-03T04:49:24.716Z,80.99
2023-02-03T04:50:24.795Z,81.20
2023-02-03T04:51:24.697Z,80.68
2023-02-03T04:52:24.686Z,80.78
2023-02-03T04:53:24.670Z,81.09
2023-02-03T04:54:24.679Z,81.09
2023-02-03T04:55:24.668Z,81.29
2023-02-03T04:56:24.642Z,81.40
2023-02-03T04:57:24.620Z,80.99
2023-02-03T04:58:24.633Z,80.88
2023-02-03T04:59:24.604Z,80.68
2023-02-03T05:00:24.612Z,80.68
2023-02-03T05:01:24.639Z,80.58
2023-02-03T05:02:24.572Z,80.58
2023-02-03T05:03:26.286Z,80.47
2023-02-03T05:04:24.551Z,80.17
2023-02-03T05:05:24.564Z,80.07
2023-02-03T05:06:26.275Z,80.07
2023-02-03T05:07:24.517Z,80.07
2023-02-03T05:08:24.527Z,80.47
2023-02-03T05:09:24.503Z,80.17
2023-02-03T05:10:24.584Z,80.07
2023-02-03T05:11:24.466Z,80.27
2023-02-03T05:12:24.491Z,80.07
2023-02-03T05:13:24.465Z,80.07
2023-02-03T05:14:24.446Z,80.07
2023-02-03T05:15:24.456Z,80.07
2023-02-03T05:16:24.490Z,80.27
2023-02-03T05:17:24.399Z,80.27
2023-02-03T05:18:24.418Z,80.07
2023-02-03T05:19:24.373Z,80.07
2023-02-03T05:20:24.413Z,80.27
2023-02-03T05:21:24.365Z,80.27
2023-02-03T05:22:24.348Z,80.37
2023-02-03T05:23:24.378Z,80.17
2023-02-03T05:24:24.322Z,80.17
2023-02-03T05:25:24.321Z,80.17
2023-02-03T05:26:24.303Z,79.82
2023-02-03T05:27:24.292Z,79.93
2023-02-03T05:28:24.277Z,80.03
2023-02-03T05:29:24.275Z,80.47
2023-02-03T05:30:24.266Z,80.37
2023-02-03T05:31:24.377Z,80.58
2023-02-03T05:32:24.233Z,80.47
2023-02-03T05:33:24.238Z,80.58
2023-02-03T05:34:24.225Z,80.58
2023-02-03T05:35:24.225Z,80.68
2023-02-03T05:36:24.187Z,80.78
2023-02-03T05:37:24.190Z,80.68
2023-02-03T05:38:24.194Z,80.68
2023-02-03T05:39:24.155Z,80.78
2023-02-03T05:40:24.152Z,80.78
2023-02-03T05:41:24.150Z,80.88
2023-02-03T05:42:24.115Z,80.99
2023-02-03T05:43:24.128Z,80.78
2023-02-03T05:44:24.095Z,80.74
2023-02-03T05:45:24.104Z,80.74
2023-02-03T05:46:24.080Z,80.74
2023-02-03T05:47:24.068Z,80.85
2023-02-03T05:48:24.069Z,80.64
2023-02-03T05:49:24.047Z,80.74
2023-02-03T05:50:24.036Z,80.85
2023-02-03T05:51:31.049Z,80.99
2023-02-03T05:52:31.032Z,81.09
2023-02-03T05:53:32.803Z,81.40
2023-02-03T05:54:31.005Z,81.20
2023-02-03T05:55:24.264Z,81.29
2023-02-03T05:56:23.963Z,81.40
2023-02-03T05:57:23.957Z,81.20
2023-02-03T05:58:23.968Z,81.40
2023-02-03T05:59:24.216Z,81.29
2023-02-03T06:00:23.942Z,81.20
2023-02-03T06:01:23.908Z,81.29
2023-02-03T06:02:23.896Z,81.60
2023-02-03T06:03:24.224Z,81.60
2023-02-03T06:04:23.989Z,81.29
2023-02-03T06:05:23.886Z,81.09
2023-02-03T06:06:23.856Z,80.85
2023-02-03T06:07:23.837Z,80.95
2023-02-03T06:08:23.849Z,80.85
2023-02-03T06:09:23.826Z,81.20
2023-02-03T06:10:23.813Z,80.99
2023-02-03T06:11:23.798Z,80.99
2023-02-03T06:12:23.784Z,81.29
2023-02-03T06:13:23.799Z,81.20
2023-02-03T06:14:23.773Z,81.09
2023-02-03T06:15:23.776Z,80.99
2023-02-03T06:16:23.768Z,80.88
2023-02-03T06:17:23.746Z,80.64
2023-02-03T06:18:23.746Z,80.33
2023-02-03T06:19:23.707Z,80.33
2023-02-03T06:20:23.697Z,80.54
2023-02-03T06:21:23.684Z,80.44
2023-02-03T06:22:23.685Z,80.54
2023-02-03T06:23:23.696Z,80.54
2023-02-03T06:24:23.653Z,80.33
2023-02-03T06:25:23.678Z,80.33
2023-02-03T06:26:23.630Z,80.33
2023-02-03T06:27:23.618Z,80.23
2023-02-03T06:28:23.617Z,80.13
2023-02-03T06:29:23.617Z,80.23
2023-02-03T06:30:23.591Z,79.93
2023-02-03T06:31:23.682Z,80.03
2023-02-03T06:32:23.569Z,80.23
2023-02-03T06:33:23.568Z,80.33
2023-02-03T06:34:23.539Z,80.13
2023-02-03T06:35:23.542Z,80.13
2023-02-03T06:36:23.520Z,79.93
2023-02-03T06:37:24.841Z,80.03
2023-02-03T06:38:23.510Z,80.13
2023-02-03T06:39:23.508Z,80.03
2023-02-03T06:40:23.497Z,80.03
2023-02-03T06:41:23.466Z,80.13
2023-02-03T06:42:23.469Z,80.03
2023-02-03T06:43:23.437Z,79.93
2023-02-03T06:44:23.449Z,79.62
2023-02-03T06:45:23.429Z,79.82
2023-02-03T06:46:23.508Z,79.93
2023-02-03T06:47:23.401Z,79.82
2023-02-03T06:48:23.392Z,79.82
2023-02-03T06:49:23.393Z,79.52
2023-02-03T06:50:23.643Z,79.52
2023-02-03T06:51:23.348Z,79.00
2023-02-03T06:52:23.375Z,78.90
2023-02-03T06:53:23.326Z,78.90
2023-02-03T06:54:23.331Z,79.00
2023-02-03T06:55:23.927Z,79.11
2023-02-03T06:56:23.303Z,79.00
2023-02-03T06:57:23.307Z,78.80
2023-02-03T06:58:23.280Z,78.90
2023-02-03T06:59:23.287Z,78.90
2023-02-03T07:00:23.285Z,79.00
2023-02-03T07:01:23.267Z,79.00
2023-02-03T07:02:23.239Z,78.70
2023-02-03T07:03:23.522Z,78.70
2023-02-03T07:04:23.236Z,78.80
2023-02-03T07:05:23.370Z,78.49
2023-02-03T07:06:23.185Z,78.59
2023-02-03T07:07:23.195Z,79.00
2023-02-03T07:08:23.165Z,79.11
2023-02-03T07:09:23.152Z,78.80
2023-02-03T07:10:23.162Z,78.90
2023-02-03T07:11:23.130Z,78.90
2023-02-03T07:12:23.117Z,79.11
2023-02-03T07:13:23.128Z,79.21
2023-02-03T07:14:23.084Z,78.90
2023-02-03T07:15:23.092Z,78.90
2023-02-03T07:16:23.095Z,79.00
2023-02-03T07:17:23.054Z,78.90
2023-02-03T07:18:45.471Z,78.80
2023-02-03T07:19:24.023Z,78.70
2023-02-03T07:20:23.045Z,78.49
2023-02-03T07:21:30.032Z,78.59
2023-02-03T07:22:23.002Z,78.59
2023-02-03T07:23:29.995Z,78.59
2023-02-03T07:24:22.995Z,78.59
2023-02-03T07:25:22.986Z,78.39
2023-02-03T07:26:22.995Z,78.39
2023-02-03T07:27:22.949Z,78.28
2023-02-03T07:28:23.027Z,78.39
2023-02-03T07:29:22.926Z,78.19
2023-02-03T07:30:22.947Z,78.39
2023-02-03T07:31:23.023Z,78.28
2023-02-03T07:32:22.892Z,78.39
2023-02-03T07:33:22.885Z,78.49
2023-02-03T07:34:22.877Z,78.70
2023-02-03T07:35:23.129Z,78.39
2023-02-03T07:36:22.841Z,78.39
2023-02-03T07:37:22.832Z,78.39
2023-02-03T07:38:22.837Z,78.59
2023-02-03T07:39:22.809Z,78.70
2023-02-03T07:40:23.541Z,78.59
2023-02-03T07:41:22.828Z,78.28
2023-02-03T07:42:22.821Z,78.15
2023-02-03T07:43:22.766Z,77.84
2023-02-03T07:44:22.751Z,78.05
2023-02-03T07:45:22.866Z,78.25
2023-02-03T07:46:22.766Z,77.84
2023-02-03T07:47:22.740Z,77.84
2023-02-03T07:48:22.725Z,77.84
2023-02-03T07:49:22.700Z,77.94
2023-02-03T07:50:22.691Z,78.05
2023-02-03T07:51:22.689Z,78.35
2023-02-03T07:52:22.703Z,78.15
2023-02-03T07:53:22.644Z,78.25
2023-02-03T07:54:22.644Z,78.35
2023-02-03T07:55:22.914Z,77.94
2023-02-03T07:56:22.638Z,77.94
2023-02-03T07:57:22.607Z,78.15
2023-02-03T07:58:22.590Z,78.15
2023-02-03T07:59:22.580Z,78.05
2023-02-03T08:00:25.559Z,78.15
2023-02-03T08:01:22.591Z,78.15
2023-02-03T08:02:22.866Z,78.15
2023-02-03T08:03:22.539Z,78.15
2023-02-03T08:04:22.532Z,78.25
2023-02-03T08:05:22.525Z,78.35
2023-02-03T08:06:22.541Z,77.94
2023-02-03T08:07:22.492Z,78.05
2023-02-03T08:08:22.486Z,78.05
2023-02-03T08:09:22.463Z,78.05
2023-02-03T08:10:22.469Z,77.94
2023-02-03T08:11:22.480Z,77.84
2023-02-03T08:12:22.478Z,77.94
2023-02-03T08:13:22.423Z,77.84
2023-02-03T08:14:22.400Z,78.05
2023-02-03T08:15:22.406Z,78.05
2023-02-03T08:16:22.483Z,77.94
2023-02-03T08:17:22.361Z,77.84
2023-02-03T08:18:22.375Z,78.05
2023-02-03T08:19:22.342Z,78.05
2023-02-03T08:20:23.080Z,78.25
2023-02-03T08:21:22.344Z,78.15
2023-02-03T08:22:24.192Z,78.35
2023-02-03T08:23:22.311Z,78.15
2023-02-03T08:24:22.296Z,78.25
2023-02-03T08:25:23.014Z,78.25
2023-02-03T08:26:22.279Z,78.45
2023-02-03T08:27:22.267Z,78.56
2023-02-03T08:28:24.030Z,78.66
2023-02-03T08:29:22.236Z,78.86
2023-02-03T08:30:22.355Z,78.66
2023-02-03T08:31:22.351Z,78.86
2023-02-03T08:32:24.262Z,79.07
2023-02-03T08:33:22.227Z,79.07
2023-02-03T08:34:22.221Z,78.86
2023-02-03T08:35:22.183Z,79.27
2023-02-03T08:36:22.174Z,79.27
2023-02-03T08:37:22.151Z,78.86
2023-02-03T08:38:22.123Z,78.97
2023-02-03T08:39:22.128Z,78.83
2023-02-03T08:40:22.102Z,78.86
2023-02-03T08:41:22.117Z,78.83
2023-02-03T08:42:22.931Z,78.83
2023-02-03T08:43:22.084Z,78.83
2023-02-03T08:44:22.083Z,78.72
2023-02-03T08:45:22.084Z,78.72
2023-02-03T08:46:22.046Z,78.83
2023-02-03T08:47:22.047Z,79.13
2023-02-03T08:48:22.022Z,78.83
2023-02-03T08:49:24.829Z,78.63
2023-02-03T08:50:21.985Z,78.63
2023-02-03T08:51:21.995Z,78.63
2023-02-03T08:52:22.003Z,78.52
2023-02-03T08:53:21.967Z,78.52
2023-02-03T08:54:30.835Z,78.63
2023-02-03T08:55:41.247Z,78.42
2023-02-03T08:56:32.303Z,78.63
2023-02-03T08:57:21.915Z,78.83
2023-02-03T08:58:21.922Z,78.72
2023-02-03T08:59:21.914Z,78.42
2023-02-03T09:00:21.930Z,78.63
2023-02-03T09:01:22.760Z,78.72
2023-02-03T09:02:21.873Z,78.63
2023-02-03T09:03:21.847Z,78.83
2023-02-03T09:04:21.947Z,78.72
2023-02-03T09:05:21.836Z,78.93
2023-02-03T09:06:23.456Z,78.93
2023-02-03T09:07:22.209Z,78.52
2023-02-03T09:08:21.789Z,78.52
2023-02-03T09:09:21.803Z,78.72
2023-02-03T09:10:24.630Z,78.63
2023-02-03T09:11:21.776Z,78.72
2023-02-03T09:12:21.759Z,78.63
2023-02-03T09:13:21.744Z,78.72
2023-02-03T09:14:21.737Z,78.93
2023-02-03T09:15:21.707Z,78.93
2023-02-03T09:16:21.795Z,78.83
2023-02-03T09:17:21.695Z,78.72
2023-02-03T09:18:21.675Z,78.72
2023-02-03T09:19:21.675Z,78.83
2023-02-03T09:20:21.726Z,78.72
2023-02-03T09:21:33.071Z,78.93
2023-02-03T09:22:22.636Z,78.83
2023-02-03T09:23:21.901Z,78.93
2023-02-03T09:24:21.607Z,78.93
2023-02-03T09:25:21.608Z,78.93
2023-02-03T09:26:21.607Z,79.13
2023-02-03T09:27:21.577Z,79.13
2023-02-03T09:28:21.620Z,79.34
2023-02-03T09:29:21.560Z,79.44
2023-02-03T09:30:21.545Z,79.34
2023-02-03T09:31:21.551Z,79.44
2023-02-03T09:32:21.559Z,79.54
2023-02-03T09:33:21.509Z,79.96
2023-02-03T09:34:21.819Z,79.96
2023-02-03T09:35:21.494Z,80.16
2023-02-03T09:36:21.499Z,80.26
2023-02-03T09:37:21.462Z,80.26
2023-02-03T09:38:21.518Z,80.26
2023-02-03T09:39:21.429Z,80.36
2023-02-03T09:40:21.427Z,80.46
2023-02-03T09:41:21.418Z,80.71
2023-02-03T09:42:21.399Z,80.81
2023-02-03T09:43:21.489Z,80.81
2023-02-03T09:44:21.379Z,80.91
2023-02-03T09:45:21.365Z,81.32
2023-02-03T09:46:21.423Z,81.32
2023-02-03T09:47:21.337Z,81.43
2023-02-03T09:48:21.337Z,81.43
2023-02-03T09:49:21.330Z,81.73
2023-02-03T09:50:21.318Z,81.63
2023-02-03T09:51:21.303Z,81.63
2023-02-03T09:52:21.282Z,81.63
2023-02-03T09:53:21.281Z,81.84
2023-02-03T09:54:21.299Z,81.73
2023-02-03T09:55:21.252Z,81.84
2023-02-03T09:56:21.253Z,81.84
2023-02-03T09:57:21.300Z,81.94
2023-02-03T09:58:21.339Z,81.79
2023-02-03T09:59:21.202Z,81.79
2023-02-03T10:00:21.189Z,81.94
2023-02-03T10:01:21.227Z,82.00
2023-02-03T10:02:21.230Z,82.14
2023-02-03T10:03:21.160Z,82.14
2023-02-03T10:04:21.148Z,82.24
2023-02-03T10:05:21.139Z,82.35
2023-02-03T10:06:21.138Z,82.35
2023-02-03T10:07:21.129Z,82.35
2023-02-03T10:08:21.145Z,82.45
2023-02-03T10:09:21.097Z,82.45
2023-02-03T10:10:21.090Z,82.41
2023-02-03T10:11:21.085Z,82.41
2023-02-03T10:12:21.069Z,82.41
2023-02-03T10:13:21.070Z,82.51
2023-02-03T10:14:21.048Z,82.51
2023-02-03T10:15:21.026Z,82.62
2023-02-03T10:16:21.050Z,82.92
2023-02-03T10:17:21.020Z,82.71
2023-02-03T10:18:21.002Z,82.96
2023-02-03T10:19:21.017Z,82.86
2023-02-03T10:20:20.959Z,82.92
2023-02-03T10:21:20.963Z,82.82
2023-02-03T10:22:20.961Z,82.82
2023-02-03T10:23:28.002Z,82.82
2023-02-03T10:24:27.949Z,82.92
2023-02-03T10:25:28.307Z,82.82
2023-02-03T10:26:28.257Z,82.92
2023-02-03T10:27:21.339Z,83.03
2023-02-03T10:28:22.837Z,83.03
2023-02-03T10:29:20.877Z,83.13
2023-02-03T10:30:20.858Z,83.03
2023-02-03T10:31:20.978Z,83.03
2023-02-03T10:32:23.559Z,83.13
2023-02-03T10:33:20.819Z,83.13
2023-02-03T10:34:20.820Z,83.23
2023-02-03T10:35:20.779Z,83.23
2023-02-03T10:36:20.804Z,83.33
2023-02-03T10:37:20.778Z,83.13
2023-02-03T10:38:20.859Z,83.44
2023-02-03T10:39:20.768Z,83.33
2023-02-03T10:40:20.739Z,83.33
2023-02-03T10:41:20.823Z,83.33
2023-02-03T10:42:20.699Z,83.33
2023-02-03T10:43:20.709Z,83.44
2023-02-03T10:44:20.688Z,83.33
2023-02-03T10:45:20.680Z,83.33
2023-02-03T10:46:20.764Z,83.54
2023-02-03T10:47:20.680Z,83.64
2023-02-03T10:48:20.649Z,83.84
2023-02-03T10:49:20.662Z,83.64
2023-02-03T10:50:20.657Z,83.64
2023-02-03T10:51:20.623Z,83.74
2023-02-03T10:52:20.586Z,83.64
2023-02-03T10:53:20.589Z,83.64
2023-02-03T10:54:20.589Z,83.54
2023-02-03T10:55:20.562Z,83.50
2023-02-03T10:56:20.572Z,83.29
2023-02-03T10:57:20.537Z,83.39
2023-02-03T10:58:20.527Z,83.39
2023-02-03T10:59:20.885Z,83.39
2023-02-03T11:00:22.303Z,83.09
2023-02-03T11:01:20.534Z,83.05
2023-02-03T11:02:20.529Z,82.75
2023-02-03T11:03:20.485Z,82.84
2023-02-03T11:04:20.471Z,82.64
2023-02-03T11:05:20.474Z,82.75
2023-02-03T11:06:20.466Z,82.54
2023-02-03T11:07:20.422Z,82.54
2023-02-03T11:08:20.424Z,82.54
2023-02-03T11:09:20.454Z,82.64
2023-02-03T11:10:20.405Z,82.54
2023-02-03T11:11:20.379Z,82.54
2023-02-03T11:12:20.377Z,83.05
2023-02-03T11:13:20.371Z,82.75
2023-02-03T11:14:20.357Z,82.64
2023-02-03T11:15:20.504Z,82.75
2023-02-03T11:16:20.439Z,83.25
2023-02-03T11:17:20.306Z,82.84
2023-02-03T11:18:20.310Z,83.05
2023-02-03T11:19:20.340Z,82.60
2023-02-03T11:20:20.300Z,82.40
2023-02-03T11:21:20.300Z,82.64
2023-02-03T11:22:20.375Z,82.81
2023-02-03T11:23:22.063Z,82.81
2023-02-03T11:24:20.260Z,82.84
2023-02-03T11:25:20.223Z,83.05
2023-02-03T11:26:20.262Z,83.25
2023-02-03T11:27:20.218Z,83.36
2023-02-03T11:28:20.283Z,83.05
2023-02-03T11:29:22.748Z,83.15
2023-02-03T11:30:20.161Z,83.25
2023-02-03T11:31:20.313Z,83.15
2023-02-03T11:32:20.139Z,83.36
2023-02-03T11:33:20.506Z,83.66
2023-02-03T11:34:20.116Z,83.46
2023-02-03T11:35:21.751Z,83.56
2023-02-03T11:36:20.123Z,83.76
2023-02-03T11:37:20.167Z,83.66
2023-02-03T11:38:20.066Z,83.66
2023-02-03T11:39:20.379Z,83.56
2023-02-03T11:40:20.064Z,83.66
2023-02-03T11:41:23.874Z,83.56
2023-02-03T11:42:20.017Z,83.66
2023-02-03T11:43:20.036Z,83.97
2023-02-03T11:44:20.029Z,83.87
2023-02-03T11:45:20.031Z,83.97
2023-02-03T11:46:20.026Z,83.97
2023-02-03T11:47:21.309Z,83.76
2023-02-03T11:48:19.967Z,84.07
2023-02-03T11:49:19.993Z,84.07
2023-02-03T11:50:19.963Z,84.07
2023-02-03T11:51:19.937Z,84.07
2023-02-03T11:52:19.909Z,84.28
2023-02-03T11:53:21.286Z,84.28
2023-02-03T11:54:19.880Z,84.38
2023-02-03T11:55:19.983Z,84.58
2023-02-03T11:56:19.891Z,84.58
2023-02-03T11:57:19.869Z,84.48
2023-02-03T11:58:19.860Z,84.69
2023-02-03T11:59:21.166Z,84.69
2023-02-03T12:00:19.843Z,84.79
2023-02-03T12:01:20.064Z,84.89
2023-02-03T12:02:19.815Z,84.79
2023-02-03T12:03:20.079Z,84.89
2023-02-03T12:04:19.924Z,84.99
2023-02-03T12:05:19.790Z,84.89
2023-02-03T12:06:19.783Z,85.20
2023-02-03T12:07:19.751Z,84.99
2023-02-03T12:08:19.723Z,84.89
2023-02-03T12:09:19.727Z,84.99
2023-02-03T12:10:19.715Z,84.99
2023-02-03T12:11:19.761Z,85.03
2023-02-03T12:12:19.682Z,85.34
2023-02-03T12:13:19.672Z,85.44
2023-02-03T12:14:19.690Z,85.55
2023-02-03T12:15:19.651Z,85.55
2023-02-03T12:16:19.700Z,85.55
2023-02-03T12:17:19.620Z,85.55
2023-02-03T12:18:19.658Z,85.50
2023-02-03T12:19:19.608Z,85.30
2023-02-03T12:20:19.622Z,85.44
2023-02-03T12:21:19.595Z,85.96
2023-02-03T12:22:19.582Z,86.05
2023-02-03T12:23:19.554Z,86.26
2023-02-03T12:24:19.679Z,86.46
2023-02-03T12:25:19.548Z,86.57
2023-02-03T12:26:19.562Z,86.98
2023-02-03T12:27:19.522Z,87.18
2023-02-03T12:28:32.530Z,87.08
2023-02-03T12:29:20.484Z,86.98
2023-02-03T12:30:19.506Z,86.98
2023-02-03T12:31:19.557Z,86.98
2023-02-03T12:32:19.472Z,86.88
2023-02-03T12:33:19.461Z,86.77
2023-02-03T12:34:19.475Z,86.88
2023-02-03T12:35:19.474Z,86.77
2023-02-03T12:36:19.439Z,86.77
2023-02-03T12:37:19.395Z,86.88
2023-02-03T12:38:19.396Z,86.57
2023-02-03T12:39:19.488Z,86.57
2023-02-03T12:40:19.377Z,86.46
2023-02-03T12:41:19.381Z,86.36
2023-02-03T12:42:19.339Z,86.46
2023-02-03T12:43:19.377Z,86.36
2023-02-03T12:44:19.353Z,86.57
2023-02-03T12:45:19.297Z,86.46
2023-02-03T12:46:19.485Z,86.57
2023-02-03T12:47:19.346Z,86.67
2023-02-03T12:48:21.056Z,86.77
2023-02-03T12:49:19.272Z,86.77
2023-02-03T12:50:19.370Z,86.77
2023-02-03T12:51:19.247Z,86.88
2023-02-03T12:52:19.215Z,86.77